Esperanza — PD6464 — position and weather

sailwx.info

Track history (hours):
 
Tides and Currents Weather Stations Pressure Air Temp Water Temp Dewpoint Dewpoint Depression Visibility Wind Speed Wind Dir Waves Ship Positions

Esperanza

Last reported at 2015-Jul-19 14:33 UTC. Time now 2015-Aug-04 05:27 UTC.
Position N 27°55' W 110°52'.
Warning: this ship's position is 15 days out of date.

Length 72 m; draft 4.8 m.

Type: Other ship. MMSI: 244690000.

Date/timePositionNaut miles runAvg speedWind from/ knotsBaromVisibWave heightAir tempDewpointWater temp
2015-Jul-19 14:33N 27°55' W 110°52'  
2015-Jul-13 04:22N 31°43' W 116°50'10 9.2
2015-Jul-13 03:19N 31°49' W 116°41'10 0.6
2015-Jul-12 12:21N 31°54' W 116°50'32 4.7
2015-Jul-12 05:33N 32°17' W 117°16'4 4.2
2015-Jul-12 04:33N 32°21' W 117°19'5 4.5
2015-Jul-12 03:33N 32°24' W 117°22'5 4.1
2015-Jul-12 02:22N 32°29' W 117°21'7 5.5
2015-Jul-12 01:11N 32°35' W 117°17'4 6.7
2015-Jul-12 00:33N 32°38' W 117°14'5 5.3
2015-Jul-11 23:33N 32°42' W 117°10'0 0.0
2015-Jul-11 22:33N 32°42' W 117°10'0 0.0
2015-Jul-11 21:33N 32°42' W 117°10'0 0.0
2015-Jul-11 20:30N 32°42' W 117°10'0 0.0
2015-Jul-11 19:33N 32°42' W 117°10'0 0.0
2015-Jul-11 18:33N 32°42' W 117°10'0 0.0
2015-Jul-11 17:33N 32°42' W 117°10'0 0.0
2015-Jul-11 16:33N 32°42' W 117°10'0 0.0
2015-Jul-11 15:33N 32°42' W 117°10'2 1.8
2015-Jul-11 14:33N 32°41' W 117°08'1 1.3
2015-Jul-11 13:31N 32°39' W 117°07'0 0.0
2015-Jul-11 12:31N 32°39' W 117°07'0 0.0
2015-Jul-11 11:31N 32°39' W 117°07'0 0.0
2015-Jul-11 10:31N 32°39' W 117°07'0 0.0
2015-Jul-11 09:31N 32°39' W 117°07'0 0.0
2015-Jul-11 08:31N 32°39' W 117°07'0 0.0
2015-Jul-11 07:31N 32°39' W 117°07'0 0.0
2015-Jul-11 06:31N 32°39' W 117°07'0 0.0
2015-Jul-11 05:31N 32°39' W 117°07'0 0.0
2015-Jul-11 04:31N 32°39' W 117°07'0 0.0
2015-Jul-11 03:34N 32°39' W 117°07'0 0.0
2015-Jul-11 02:31N 32°39' W 117°07'0 0.0
2015-Jul-11 01:31N 32°39' W 117°07'0 0.0
2015-Jul-11 00:31N 32°39' W 117°07'0 0.0
2015-Jul-10 23:33N 32°39' W 117°07'0 0.0
2015-Jul-10 22:34N 32°39' W 117°07'0 0.0
2015-Jul-10 21:34N 32°39' W 117°07'0 0.0
2015-Jul-10 20:33N 32°39' W 117°07'0 0.0
2015-Jul-10 19:34N 32°39' W 117°07'0 0.0
2015-Jul-10 18:28N 32°39' W 117°07'0 0.0
2015-Jul-10 17:34N 32°39' W 117°07'0 0.0
2015-Jul-10 16:33N 32°39' W 117°07'0 0.0
2015-Jul-10 15:33N 32°39' W 117°07'0 0.0
2015-Jul-10 14:34N 32°39' W 117°07'0 0.0
2015-Jul-10 13:33N 32°39' W 117°07'0 0.0
2015-Jul-10 12:31N 32°39' W 117°07'0 0.0
2015-Jul-10 11:34N 32°39' W 117°07'0 0.0
2015-Jul-10 10:33N 32°39' W 117°07'0 0.0
2015-Jul-10 09:33N 32°39' W 117°07'0 0.0
2015-Jul-10 08:33N 32°39' W 117°07'0 0.0
2015-Jul-10 07:34N 32°39' W 117°07'0 0.0
2015-Jul-10 06:33N 32°39' W 117°07'0 0.0
2015-Jul-10 05:33N 32°39' W 117°07'0 0.0
2015-Jul-10 04:33N 32°39' W 117°07'0 0.0
2015-Jul-10 03:33N 32°39' W 117°07'0 0.0
2015-Jul-10 02:33N 32°39' W 117°07'0 0.0
2015-Jul-10 01:30N 32°39' W 117°07'0 0.0
2015-Jul-10 00:33N 32°39' W 117°07'0 0.0
2015-Jul-09 23:33N 32°39' W 117°07'0 0.0
2015-Jul-09 22:33N 32°39' W 117°07'0 0.0
2015-Jul-09 21:33N 32°39' W 117°07'0 0.0
2015-Jul-09 20:33N 32°39' W 117°07'0 0.0
2015-Jul-09 19:33N 32°39' W 117°07'0 0.0
2015-Jul-09 18:33N 32°39' W 117°07'0 0.0
2015-Jul-09 17:33N 32°39' W 117°07'0 0.0
2015-Jul-09 16:33N 32°39' W 117°07'0 0.0
2015-Jul-09 15:33N 32°39' W 117°07'0 0.0
2015-Jul-09 14:33N 32°39' W 117°07'  
Track history (hours):
 
Tides and Currents Weather Stations Pressure Air Temp Water Temp Dewpoint Dewpoint Depression Visibility Wind Speed Wind Dir Waves Ship Positions

Esperanza

Last reported at 2015-Jul-19 14:33 UTC. Time now 2015-Aug-04 05:27 UTC.
Position N 27°55' W 110°52'.
Warning: this ship's position is 15 days out of date.

Length 72 m; draft 4.8 m.

Type: Other ship. MMSI: 244690000.

Date/timePositionNaut miles runAvg speedWind from/ knotsBaromVisibWave heightAir tempDewpointWater temp
2015-Jul-19 14:33N 27°55' W 110°52'  
2015-Jul-13 04:22N 31°43' W 116°50'10 9.2
2015-Jul-13 03:19N 31°49' W 116°41'10 0.6
2015-Jul-12 12:21N 31°54' W 116°50'32 4.7
2015-Jul-12 05:33N 32°17' W 117°16'4 4.2
2015-Jul-12 04:33N 32°21' W 117°19'5 4.5
2015-Jul-12 03:33N 32°24' W 117°22'5 4.1
2015-Jul-12 02:22N 32°29' W 117°21'7 5.5
2015-Jul-12 01:11N 32°35' W 117°17'4 6.7
2015-Jul-12 00:33N 32°38' W 117°14'5 5.3
2015-Jul-11 23:33N 32°42' W 117°10'0 0.0
2015-Jul-11 22:33N 32°42' W 117°10'0 0.0
2015-Jul-11 21:33N 32°42' W 117°10'0 0.0
2015-Jul-11 20:30N 32°42' W 117°10'0 0.0
2015-Jul-11 19:33N 32°42' W 117°10'0 0.0
2015-Jul-11 18:33N 32°42' W 117°10'0 0.0
2015-Jul-11 17:33N 32°42' W 117°10'0 0.0
2015-Jul-11 16:33N 32°42' W 117°10'0 0.0
2015-Jul-11 15:33N 32°42' W 117°10'2 1.8
2015-Jul-11 14:33N 32°41' W 117°08'1 1.3
2015-Jul-11 13:31N 32°39' W 117°07'0 0.0
2015-Jul-11 12:31N 32°39' W 117°07'0 0.0
2015-Jul-11 11:31N 32°39' W 117°07'0 0.0
2015-Jul-11 10:31N 32°39' W 117°07'0 0.0
2015-Jul-11 09:31N 32°39' W 117°07'0 0.0
2015-Jul-11 08:31N 32°39' W 117°07'0 0.0
2015-Jul-11 07:31N 32°39' W 117°07'0 0.0
2015-Jul-11 06:31N 32°39' W 117°07'0 0.0
2015-Jul-11 05:31N 32°39' W 117°07'0 0.0
2015-Jul-11 04:31N 32°39' W 117°07'0 0.0
2015-Jul-11 03:34N 32°39' W 117°07'0 0.0
2015-Jul-11 02:31N 32°39' W 117°07'0 0.0
2015-Jul-11 01:31N 32°39' W 117°07'0 0.0
2015-Jul-11 00:31N 32°39' W 117°07'0 0.0
2015-Jul-10 23:33N 32°39' W 117°07'0 0.0
2015-Jul-10 22:34N 32°39' W 117°07'0 0.0
2015-Jul-10 21:34N 32°39' W 117°07'0 0.0
2015-Jul-10 20:33N 32°39' W 117°07'0 0.0
2015-Jul-10 19:34N 32°39' W 117°07'0 0.0
2015-Jul-10 18:28N 32°39' W 117°07'0 0.0
2015-Jul-10 17:34N 32°39' W 117°07'0 0.0
2015-Jul-10 16:33N 32°39' W 117°07'0 0.0
2015-Jul-10 15:33N 32°39' W 117°07'0 0.0
2015-Jul-10 14:34N 32°39' W 117°07'0 0.0
2015-Jul-10 13:33N 32°39' W 117°07'0 0.0
2015-Jul-10 12:31N 32°39' W 117°07'0 0.0
2015-Jul-10 11:34N 32°39' W 117°07'0 0.0
2015-Jul-10 10:33N 32°39' W 117°07'0 0.0
2015-Jul-10 09:33N 32°39' W 117°07'0 0.0
2015-Jul-10 08:33N 32°39' W 117°07'0 0.0
2015-Jul-10 07:34N 32°39' W 117°07'0 0.0
2015-Jul-10 06:33N 32°39' W 117°07'0 0.0
2015-Jul-10 05:33N 32°39' W 117°07'0 0.0
2015-Jul-10 04:33N 32°39' W 117°07'0 0.0
2015-Jul-10 03:33N 32°39' W 117°07'0 0.0
2015-Jul-10 02:33N 32°39' W 117°07'0 0.0
2015-Jul-10 01:30N 32°39' W 117°07'0 0.0
2015-Jul-10 00:33N 32°39' W 117°07'0 0.0
2015-Jul-09 23:33N 32°39' W 117°07'0 0.0
2015-Jul-09 22:33N 32°39' W 117°07'0 0.0
2015-Jul-09 21:33N 32°39' W 117°07'0 0.0
2015-Jul-09 20:33N 32°39' W 117°07'0 0.0
2015-Jul-09 19:33N 32°39' W 117°07'0 0.0
2015-Jul-09 18:33N 32°39' W 117°07'0 0.0
2015-Jul-09 17:33N 32°39' W 117°07'0 0.0
2015-Jul-09 16:33N 32°39' W 117°07'0 0.0
2015-Jul-09 15:33N 32°39' W 117°07'0 0.0
2015-Jul-09 14:33N 32°39' W 117°07'  

Dump ship's entire track history